Time;durP1;ratioP1;P1;durP2;ratioP2;P2;SDS_P1;SDS_P2;PMS_P1;PMS_P2;Temp;Humidity;BMP_temperature;BMP_pressure;BME280_temperature;BME280_humidity;BME280_pressure;Samples;Min_cycle;Max_cycle;Signal;HPM_P1;HPM_P2
2021/07/24 00:01:21;;;;;;;5.93;4.30;;;26.60;91.80;;;;;;5097206;28;20048;-57
2021/07/24 00:03:49;;;;;;;6.05;4.78;;;26.60;91.80;;;;;;5095405;28;20135;-57
2021/07/24 00:06:24;;;;;;;;;;;26.60;91.80;;;;;;5093057;28;20511;-57
2021/07/24 00:08:52;;;;;;;9.10;5.13;;;26.50;91.90;;;;;;5078498;28;19974;-57
2021/07/24 00:11:20;;;;;;;6.45;4.72;;;26.60;91.90;;;;;;5096949;28;20044;-57
2021/07/24 00:13:47;;;;;;;7.32;4.30;;;26.50;92.00;;;;;;5096320;28;20058;-56
2021/07/24 00:16:15;;;;;;;7.47;5.47;;;26.50;92.10;;;;;;5096988;28;20047;-57
2021/07/24 00:18:43;;;;;;;5.78;4.25;;;26.50;92.10;;;;;;5095121;28;20048;-56
2021/07/24 00:21:10;;;;;;;6.32;4.53;;;26.50;92.20;;;;;;5094874;28;20047;-57
2021/07/24 00:23:38;;;;;;;8.00;5.03;;;26.50;92.30;;;;;;5096281;28;20050;-56
2021/07/24 00:26:06;;;;;;;6.55;4.63;;;26.40;92.30;;;;;;5096430;28;20072;-57
2021/07/24 00:28:33;;;;;;;7.18;4.72;;;26.40;92.30;;;;;;5095935;28;20040;-56
2021/07/24 00:31:01;;;;;;;9.70;4.45;;;26.40;92.40;;;;;;5095621;28;20038;-57
2021/07/24 00:33:36;;;;;;;5.00;4.27;;;26.40;92.40;;;;;;5078133;28;20032;-54
2021/07/24 00:36:04;;;;;;;8.45;4.60;;;26.30;92.40;;;;;;5096507;28;20161;-57
2021/07/24 00:38:32;;;;;;;8.55;4.85;;;26.30;92.40;;;;;;5096362;28;20048;-56
2021/07/24 00:41:08;;;;;;;6.93;5.00;;;26.30;92.50;;;;;;5096049;28;20135;-57
2021/07/24 00:43:37;;;;;;;7.82;4.38;;;26.30;92.40;;;;;;5096029;28;20036;-56
2021/07/24 00:46:05;;;;;;;6.45;4.43;;;26.30;92.50;;;;;;5083960;28;20048;-57
2021/07/24 00:48:36;;;;;;;7.22;4.57;;;26.30;92.50;;;;;;5077819;28;20040;-56
2021/07/24 00:51:34;;;;;;;7.78;5.10;;;26.30;92.50;;;;;;5070164;28;20048;-57
2021/07/24 00:54:02;;;;;;;7.15;5.25;;;26.30;92.50;;;;;;5095426;28;20367;-56
2021/07/24 00:56:30;;;;;;;9.15;4.75;;;26.30;92.50;;;;;;5085167;28;20051;-56
2021/07/24 00:58:58;;;;;;;5.82;4.38;;;26.20;92.40;;;;;;5094559;28;20493;-57
2021/07/24 01:01:25;;;;;;;8.93;5.57;;;26.20;92.40;;;;;;5091255;28;20093;-57
2021/07/24 01:03:53;;;;;;;6.03;4.72;;;26.20;92.40;;;;;;5060452;28;20140;-57
2021/07/24 01:06:24;;;;;;;6.63;4.57;;;26.20;92.40;;;;;;5085069;28;20044;-55
2021/07/24 01:08:52;;;;;;;8.05;5.57;;;26.20;92.30;;;;;;5093587;28;20048;-57
2021/07/24 01:11:20;;;;;;;6.80;5.30;;;26.20;92.30;;;;;;5095547;28;20119;-57
2021/07/24 01:13:50;;;;;;;7.32;4.78;;;26.20;92.30;;;;;;5093420;28;20135;-56
2021/07/24 01:16:19;;;;;;;6.55;5.05;;;26.20;92.30;;;;;;5084492;28;20048;-57
2021/07/24 01:18:47;;;;;;;8.02;4.82;;;26.10;92.20;;;;;;5094770;28;20044;-57
2021/07/24 01:21:29;;;;;;;7.10;5.00;;;26.10;92.20;;;;;;5085256;28;20436;-57
2021/07/24 01:23:59;;;;;;;7.68;4.82;;;26.10;92.20;;;;;;5093056;28;20075;-54
2021/07/24 01:26:34;;;;;;;5.90;4.72;;;26.10;92.30;;;;;;5083351;28;20071;-56
2021/07/24 01:29:04;;;;;;;5.60;4.20;;;26.10;92.40;;;;;;5076876;28;20043;-55
2021/07/24 01:31:33;;;;;;;7.93;4.47;;;26.10;92.50;;;;;;5085125;28;20040;-56
2021/07/24 01:34:02;;;;;;;6.95;5.25;;;26.00;92.50;;;;;;5092266;28;20040;-56
2021/07/24 01:36:30;;;;;;;7.40;4.38;;;26.10;92.60;;;;;;5085063;28;20055;-57
2021/07/24 01:38:58;;;;;;;6.90;5.50;;;26.00;92.60;;;;;;5076223;28;20036;-57
2021/07/24 01:41:27;;;;;;;9.57;4.57;;;26.10;92.70;;;;;;5078272;28;20071;-56
2021/07/24 01:43:55;;;;;;;8.15;4.57;;;26.00;92.60;;;;;;5043873;28;20070;-56
2021/07/24 01:46:24;;;;;;;6.90;4.85;;;26.10;92.60;;;;;;5066115;28;20040;-57
2021/07/24 01:49:10;;;;;;;8.65;5.00;;;26.00;92.60;;;;;;5062473;28;20111;-57
2021/07/24 01:54:55;;;;;;;7.60;5.40;;;26.00;92.60;;;;;;5090084;28;20493;-56
2021/07/24 01:57:25;;;;;;;6.38;4.47;;;26.00;92.60;;;;;;5062123;28;20043;-57
2021/07/24 02:00:08;;;;;;;6.07;4.43;;;26.00;92.70;;;;;;5075122;28;20040;-57
2021/07/24 02:02:48;;;;;;;6.75;4.32;;;26.00;92.70;;;;;;5094520;28;20040;-56
2021/07/24 02:05:46;;;;;;;7.28;5.20;;;26.00;92.80;;;;;;5086726;28;20556;-57
2021/07/24 02:08:23;;;;;;;7.47;4.95;;;25.90;92.80;;;;;;5057006;28;20135;-57
2021/07/24 02:10:52;;;;;;;10.48;5.57;;;25.90;92.80;;;;;;5081639;28;20055;-56
2021/07/24 02:13:21;;;;;;;5.57;4.45;;;25.90;92.80;;;;;;5077021;28;20063;-56
2021/07/24 02:15:50;;;;;;;10.05;5.15;;;25.90;92.80;;;;;;5082440;28;20065;-57
2021/07/24 02:18:20;;;;;;;6.75;4.72;;;25.90;92.90;;;;;;5093652;28;20044;-57
2021/07/24 02:20:57;;;;;;;6.85;4.88;;;25.90;92.90;;;;;;5087437;28;20040;-56
2021/07/24 02:23:26;;;;;;;5.88;4.57;;;25.90;92.90;;;;;;5076620;28;20047;-57
2021/07/24 02:25:54;;;;;;;6.65;4.40;;;25.90;93.00;;;;;;5080654;28;20076;-57
2021/07/24 02:28:22;;;;;;;11.00;5.30;;;25.90;93.10;;;;;;5093237;28;20040;-56
2021/07/24 02:30:50;;;;;;;8.40;5.05;;;25.80;93.20;;;;;;5081929;28;20366;-56
2021/07/24 02:33:19;;;;;;;8.55;5.03;;;25.90;93.40;;;;;;5093500;28;20047;-57
2021/07/24 02:35:49;;;;;;;7.00;5.18;;;25.80;93.50;;;;;;5093957;28;20084;-57
2021/07/24 02:38:23;;;;;;;10.85;5.22;;;25.80;93.50;;;;;;5077598;28;20040;-57
2021/07/24 02:40:51;;;;;;;6.55;5.10;;;25.80;93.60;;;;;;5081648;28;20036;-56
2021/07/24 02:43:19;;;;;;;6.95;5.20;;;25.70;93.60;;;;;;5092894;28;20044;-57
2021/07/24 02:45:47;;;;;;;7.45;5.45;;;25.70;93.70;;;;;;5082369;28;20052;-57
2021/07/24 02:48:15;;;;;;;8.13;4.70;;;25.70;93.80;;;;;;5094206;28;20079;-57
2021/07/24 02:50:49;;;;;;;8.55;6.35;;;25.60;93.90;;;;;;5070535;28;20044;-56
2021/07/24 02:53:17;;;;;;;6.88;5.32;;;25.70;94.00;;;;;;5093647;28;20059;-56
2021/07/24 02:55:45;;;;;;;7.15;4.82;;;25.70;94.10;;;;;;5081080;28;20089;-56
2021/07/24 02:58:12;;;;;;;6.32;5.15;;;25.60;94.00;;;;;;5093621;28;20036;-57
2021/07/24 03:00:41;;;;;;;8.52;5.30;;;25.70;94.10;;;;;;5062915;28;20091;-56
2021/07/24 03:03:09;;;;;;;8.52;6.18;;;25.60;94.10;;;;;;5093762;28;20043;-56
2021/07/24 03:05:37;;;;;;;7.88;5.40;;;25.60;94.30;;;;;;5093032;28;20079;-57
2021/07/24 03:08:04;;;;;;;8.73;5.47;;;25.60;94.40;;;;;;5093925;28;20040;-56
2021/07/24 03:10:32;;;;;;;7.47;5.40;;;25.60;94.50;;;;;;5093018;28;20497;-56
2021/07/24 03:12:59;;;;;;;7.53;5.15;;;25.60;94.60;;;;;;5093571;28;20052;-57
2021/07/24 03:15:28;;;;;;;7.25;5.53;;;25.60;94.80;;;;;;5093059;28;20135;-56
2021/07/24 03:17:55;;;;;;;7.97;5.38;;;25.60;95.10;;;;;;5094040;28;20097;-57
2021/07/24 03:20:23;;;;;;;7.07;5.25;;;25.60;95.30;;;;;;5093259;28;20047;-56
2021/07/24 03:22:51;;;;;;;8.13;6.03;;;25.60;95.40;;;;;;5056285;28;20044;-56
2021/07/24 03:25:20;;;;;;;8.75;5.30;;;25.60;95.60;;;;;;5088134;28;20028;-56
2021/07/24 03:27:48;;;;;;;9.38;5.50;;;25.60;95.80;;;;;;5093286;28;20136;-56
2021/07/24 03:30:15;;;;;;;11.10;6.65;;;25.60;95.90;;;;;;5093060;28;20040;-56
2021/07/24 03:32:43;;;;;;;7.78;6.03;;;25.60;96.00;;;;;;5089413;28;20047;-56
2021/07/24 03:35:12;;;;;;;9.25;6.05;;;25.60;96.00;;;;;;5093057;28;20036;-56
2021/07/24 03:37:39;;;;;;;8.02;6.45;;;25.60;96.00;;;;;;5093176;28;20121;-56
2021/07/24 03:40:07;;;;;;;8.13;6.72;;;25.60;96.10;;;;;;5087306;28;20109;-56
2021/07/24 03:42:35;;;;;;;9.77;6.57;;;25.60;96.10;;;;;;5058292;28;20044;-55
2021/07/24 03:45:02;;;;;;;8.35;5.82;;;25.60;96.20;;;;;;5085348;28;20052;-56
2021/07/24 03:47:32;;;;;;;9.07;6.25;;;25.60;96.10;;;;;;5092972;28;20405;-55
2021/07/24 03:50:00;;;;;;;8.70;6.35;;;25.60;96.10;;;;;;5088078;28;20086;-56
2021/07/24 03:52:27;;;;;;;8.98;6.57;;;25.60;96.20;;;;;;5087257;28;20063;-56
2021/07/24 03:54:55;;;;;;;11.13;7.07;;;25.60;96.20;;;;;;5091956;28;20064;-56
2021/07/24 03:57:22;;;;;;;8.55;6.60;;;25.60;96.10;;;;;;5093106;28;20048;-56
2021/07/24 03:59:50;;;;;;;8.68;6.35;;;25.60;96.10;;;;;;5092774;28;20054;-56
2021/07/24 04:02:23;;;;;;;6.82;5.55;;;25.60;96.00;;;;;;5093106;28;20055;-56
2021/07/24 04:04:52;;;;;;;8.90;5.90;;;25.60;96.00;;;;;;5091959;28;20052;-56
2021/07/24 04:07:21;;;;;;;7.85;5.20;;;25.70;96.00;;;;;;5086393;28;20086;-56
2021/07/24 04:09:51;;;;;;;7.28;5.80;;;25.70;95.90;;;;;;5088387;28;20048;-56
2021/07/24 04:12:19;;;;;;;9.02;6.40;;;25.80;95.80;;;;;;5093095;28;20497;-56
2021/07/24 04:14:47;;;;;;;9.60;6.60;;;25.80;95.80;;;;;;5092195;28;20078;-56
2021/07/24 04:17:14;;;;;;;7.15;5.53;;;25.90;95.80;;;;;;5092915;28;20506;-56
2021/07/24 04:19:43;;;;;;;8.98;5.82;;;25.90;95.70;;;;;;5092572;28;20086;-56
2021/07/24 04:22:11;;;;;;;9.10;7.10;;;26.00;95.70;;;;;;5093048;28;20036;-56
2021/07/24 04:24:39;;;;;;;10.10;6.90;;;26.00;95.50;;;;;;5091676;28;20397;-56
2021/07/24 04:27:07;;;;;;;8.10;5.72;;;26.10;95.50;;;;;;5082748;28;20039;-55
2021/07/24 04:29:35;;;;;;;9.68;6.40;;;26.20;95.40;;;;;;5092240;28;20528;-56
2021/07/24 04:32:03;;;;;;;8.82;6.30;;;26.20;95.40;;;;;;5082769;28;20051;-56
2021/07/24 04:34:31;;;;;;;9.00;5.57;;;26.30;95.40;;;;;;5092909;28;20036;-56
2021/07/24 04:36:59;;;;;;;10.93;6.82;;;26.40;95.40;;;;;;5087723;28;20047;-56
2021/07/24 04:39:26;;;;;;;6.75;5.38;;;26.40;95.50;;;;;;5095792;28;20553;-56
2021/07/24 04:41:54;;;;;;;8.05;5.88;;;26.50;95.70;;;;;;5096681;28;20068;-56
2021/07/24 04:44:21;;;;;;;10.50;6.07;;;26.60;95.80;;;;;;5095609;28;20128;-57
2021/07/24 04:46:50;;;;;;;8.10;5.65;;;26.70;95.80;;;;;;5095896;28;20378;-56
2021/07/24 04:49:17;;;;;;;6.75;5.10;;;26.90;95.80;;;;;;5095905;28;20052;-56
2021/07/24 04:51:45;;;;;;;6.63;5.32;;;27.00;95.70;;;;;;5096478;28;20071;-56
2021/07/24 04:54:13;;;;;;;9.73;6.18;;;27.10;95.60;;;;;;5095233;28;20056;-54
2021/07/24 04:56:41;;;;;;;7.85;5.63;;;27.20;95.70;;;;;;5095906;28;20389;-56
2021/07/24 04:59:09;;;;;;;8.18;5.90;;;27.30;95.30;;;;;;5095548;28;20119;-56
2021/07/24 05:01:36;;;;;;;12.05;6.30;;;27.40;95.10;;;;;;5096301;28;20121;-56
2021/07/24 05:04:04;;;;;;;8.27;6.25;;;27.50;94.80;;;;;;5095912;28;20036;-56
2021/07/24 05:06:32;;;;;;;9.25;5.68;;;27.70;94.70;;;;;;5095877;28;20063;-57
2021/07/24 05:09:00;;;;;;;7.57;5.40;;;27.80;94.50;;;;;;5095383;28;20046;-56
2021/07/24 05:11:27;;;;;;;8.70;5.53;;;28.00;94.30;;;;;;5095498;28;20215;-57
2021/07/24 05:13:55;;;;;;;11.43;6.57;;;28.10;94.10;;;;;;5078584;28;20062;-56
2021/07/24 05:16:23;;;;;;;11.57;6.25;;;28.20;94.00;;;;;;5095728;28;20048;-57
2021/07/24 05:18:50;;;;;;;10.40;6.35;;;28.30;93.90;;;;;;5095110;28;20048;-57
2021/07/24 05:21:18;;;;;;;9.15;5.75;;;28.40;93.70;;;;;;5095899;28;20043;-56
2021/07/24 05:23:46;;;;;;;6.65;5.03;;;28.50;93.70;;;;;;5093813;28;20059;-56
2021/07/24 05:26:14;;;;;;;8.25;5.40;;;28.70;93.20;;;;;;5095446;28;20047;-57
2021/07/24 05:28:43;;;;;;;7.82;5.40;;;28.80;93.10;;;;;;5094626;28;20080;-56
2021/07/24 05:31:15;;;;;;;7.97;5.35;;;28.90;93.00;;;;;;5081417;28;20044;-57
2021/07/24 05:33:43;;;;;;;7.05;5.00;;;29.00;92.80;;;;;;5093908;28;20157;-57
2021/07/24 05:36:11;;;;;;;8.32;6.20;;;29.10;92.60;;;;;;5093086;28;20497;-57
2021/07/24 05:38:39;;;;;;;10.18;5.80;;;29.20;92.40;;;;;;5093407;28;20490;-57
2021/07/24 05:41:06;;;;;;;11.15;6.63;;;29.30;92.30;;;;;;5095429;28;20552;-56
2021/07/24 05:43:34;;;;;;;14.18;6.53;;;29.40;92.10;;;;;;5094769;28;20044;-56
2021/07/24 05:46:02;;;;;;;6.82;5.75;;;29.50;92.00;;;;;;5093661;28;20040;-57
2021/07/24 05:48:29;;;;;;;5.85;4.85;;;29.50;91.90;;;;;;5094973;28;20076;-56
2021/07/24 05:50:57;;;;;;;6.82;5.05;;;29.60;91.60;;;;;;5094898;28;20044;-57
2021/07/24 05:53:25;;;;;;;8.38;5.15;;;29.80;91.60;;;;;;5095552;28;20067;-57
2021/07/24 05:55:52;;;;;;;9.27;5.30;;;29.90;91.50;;;;;;5087081;28;20062;-56
2021/07/24 05:58:20;;;;;;;7.28;5.63;;;30.00;91.40;;;;;;5093703;28;20059;-57
2021/07/24 06:00:47;;;;;;;7.82;5.70;;;30.00;91.10;;;;;;5094263;28;20134;-57
2021/07/24 06:03:15;;;;;;;6.55;4.90;;;30.10;91.10;;;;;;5077252;28;20071;-57
2021/07/24 06:05:43;;;;;;;6.43;5.15;;;30.20;91.00;;;;;;5094284;28;20051;-57
2021/07/24 06:08:10;;;;;;;8.95;6.30;;;30.30;90.80;;;;;;5093828;28;20386;-57
2021/07/24 06:10:38;;;;;;;7.38;5.45;;;30.30;90.60;;;;;;5094019;28;20044;-57
2021/07/24 06:13:07;;;;;;;7.82;6.22;;;30.40;90.50;;;;;;5094740;28;20045;-57
2021/07/24 06:15:40;;;;;;;11.32;6.25;;;30.50;90.30;;;;;;5094130;28;20048;-57
2021/07/24 06:18:08;;;;;;;9.60;5.93;;;30.50;90.10;;;;;;5056761;28;20053;-57
2021/07/24 06:20:38;;;;;;;9.55;6.22;;;30.60;90.00;;;;;;5091363;28;20066;-56
2021/07/24 06:23:06;;;;;;;8.80;5.80;;;30.70;89.60;;;;;;5074460;28;20036;-56
2021/07/24 06:25:34;;;;;;;8.73;5.63;;;30.90;89.40;;;;;;5091211;28;20052;-57
2021/07/24 06:28:01;;;;;;;9.02;5.47;;;30.90;88.80;;;;;;5094576;28;20434;-57
2021/07/24 06:30:30;;;;;;;7.65;6.30;;;31.10;88.30;;;;;;5085567;28;20370;-57
2021/07/24 06:32:57;;;;;;;7.78;5.53;;;31.20;87.80;;;;;;5094345;28;20497;-57
2021/07/24 06:35:25;;;;;;;10.68;6.95;;;31.30;87.20;;;;;;5085636;28;20047;-57
2021/07/24 06:37:53;;;;;;;9.32;6.05;;;31.40;86.50;;;;;;5091914;28;20047;-57
2021/07/24 06:40:20;;;;;;;6.53;5.25;;;31.50;86.40;;;;;;5093733;28;20047;-57
2021/07/24 06:42:48;;;;;;;8.43;5.93;;;31.40;86.00;;;;;;5093832;28;20047;-57
2021/07/24 06:45:16;;;;;;;9.50;5.82;;;31.40;86.10;;;;;;5093625;28;20070;-57
2021/07/24 06:47:43;;;;;;;9.48;5.72;;;31.40;85.50;;;;;;5094005;28;20048;-57
2021/07/24 06:50:11;;;;;;;6.50;5.47;;;31.40;85.30;;;;;;5093259;28;20044;-57
2021/07/24 06:52:39;;;;;;;7.57;5.18;;;31.50;85.20;;;;;;5089163;28;20044;-56
2021/07/24 06:55:07;;;;;;;9.73;5.47;;;31.50;84.50;;;;;;5093100;28;20056;-57
2021/07/24 06:57:35;;;;;;;6.13;5.07;;;31.60;83.60;;;;;;5088171;28;20044;-57
2021/07/24 07:00:03;;;;;;;7.63;5.53;;;31.60;83.60;;;;;;5088207;28;20109;-57
2021/07/24 07:02:31;;;;;;;6.60;5.35;;;31.80;83.50;;;;;;5093734;28;20514;-57
2021/07/24 07:04:58;;;;;;;6.68;5.22;;;31.80;82.00;;;;;;5093075;28;20102;-57
2021/07/24 07:07:26;;;;;;;6.55;5.05;;;31.80;79.90;;;;;;5093671;28;20068;-57
2021/07/24 07:09:54;;;;;;;6.45;4.60;;;31.80;79.70;;;;;;5088961;28;20131;-57
2021/07/24 07:12:21;;;;;;;7.25;5.10;;;31.80;79.50;;;;;;5093319;28;20085;-57
2021/07/24 07:14:49;;;;;;;5.90;4.72;;;31.80;79.90;;;;;;5088523;28;20043;-57
2021/07/24 07:17:18;;;;;;;7.22;4.95;;;31.60;78.00;;;;;;5093558;28;20052;-57
2021/07/24 07:19:46;;;;;;;6.90;5.15;;;31.50;77.40;;;;;;5093226;28;20060;-57
2021/07/24 07:22:13;;;;;;;8.93;5.13;;;31.60;77.70;;;;;;5093610;28;20456;-57
2021/07/24 07:24:41;;;;;;;6.22;5.05;;;31.70;76.70;;;;;;5092962;28;20089;-57
2021/07/24 07:27:09;;;;;;;8.45;5.55;;;31.90;75.40;;;;;;5093536;28;20123;-57
2021/07/24 07:29:36;;;;;;;6.82;4.38;;;32.10;74.00;;;;;;5092803;28;20046;-57
2021/07/24 07:32:05;;;;;;;6.95;5.38;;;32.20;70.70;;;;;;5084124;28;20048;-57
2021/07/24 07:34:32;;;;;;;7.55;4.90;;;32.40;70.80;;;;;;5092954;28;20037;-57
2021/07/24 07:37:00;;;;;;;6.15;4.30;;;32.50;68.30;;;;;;5085000;28;20048;-57
2021/07/24 07:39:28;;;;;;;8.07;5.65;;;32.70;66.80;;;;;;5092908;28;20044;-57
2021/07/24 07:41:56;;;;;;;7.47;5.35;;;32.70;66.80;;;;;;5093288;28;20551;-57
2021/07/24 07:44:24;;;;;;;7.07;5.50;;;32.80;64.70;;;;;;5092690;28;20067;-57
2021/07/24 07:46:52;;;;;;;7.63;4.78;;;32.90;66.50;;;;;;5093098;28;20044;-57
2021/07/24 07:49:20;;;;;;;6.13;4.90;;;33.00;67.20;;;;;;5092619;28;20032;-57
2021/07/24 07:51:47;;;;;;;6.95;5.30;;;33.00;66.80;;;;;;5093338;28;20046;-57
2021/07/24 07:54:15;;;;;;;7.38;5.10;;;33.10;67.80;;;;;;5093056;28;20040;-57
2021/07/24 07:56:43;;;;;;;7.15;4.97;;;33.10;67.50;;;;;;5092649;28;20066;-57
2021/07/24 07:59:10;;;;;;;6.28;4.70;;;33.00;65.80;;;;;;5089931;28;20032;-57
2021/07/24 08:01:38;;;;;;;7.32;5.35;;;33.00;65.70;;;;;;5093157;28;20059;-57
2021/07/24 08:04:06;;;;;;;6.55;5.03;;;33.10;65.00;;;;;;5090486;28;20032;-57
2021/07/24 08:06:34;;;;;;;6.28;4.95;;;33.10;64.10;;;;;;5093223;28;20416;-58
2021/07/24 08:09:02;;;;;;;5.30;3.75;;;32.90;62.90;;;;;;5094257;28;20036;-58
2021/07/24 08:11:30;;;;;;;6.68;5.18;;;33.00;62.70;;;;;;5086652;28;20558;-57
2021/07/24 08:13:58;;;;;;;6.30;5.03;;;33.20;63.90;;;;;;5096358;28;20032;-58
2021/07/24 08:16:25;;;;;;;7.57;5.45;;;33.20;62.50;;;;;;5096697;28;20438;-56
2021/07/24 08:18:53;;;;;;;8.45;5.15;;;33.30;62.40;;;;;;5096321;28;20110;-58
2021/07/24 08:21:21;;;;;;;6.60;5.10;;;33.40;62.50;;;;;;5096933;28;20082;-58
2021/07/24 08:23:48;;;;;;;9.63;5.30;;;33.60;63.00;;;;;;5096437;28;20048;-57
2021/07/24 08:26:16;;;;;;;5.65;4.85;;;33.60;62.60;;;;;;5096658;28;20044;-58
2021/07/24 08:28:43;;;;;;;5.75;4.75;;;33.70;61.70;;;;;;5095707;28;20520;-58
2021/07/24 08:31:15;;;;;;;7.25;4.70;;;33.50;61.80;;;;;;5094789;28;20435;-58
2021/07/24 08:33:43;;;;;;;7.80;4.85;;;33.50;61.90;;;;;;5095313;28;20040;-58
2021/07/24 08:36:11;;;;;;;7.38;5.05;;;33.50;62.40;;;;;;5084379;28;20051;-59
2021/07/24 08:38:38;;;;;;;6.30;5.00;;;33.60;62.10;;;;;;5094827;28;20059;-57
2021/07/24 08:41:06;;;;;;;6.68;4.70;;;33.70;61.80;;;;;;5096455;28;20062;-58
2021/07/24 08:43:34;;;;;;;7.90;4.40;;;33.80;62.00;;;;;;5095737;28;20048;-58
2021/07/24 08:46:01;;;;;;;6.78;5.10;;;33.70;62.10;;;;;;5095959;28;20044;-58
2021/07/24 08:48:29;;;;;;;12.10;5.25;;;33.80;62.70;;;;;;5096227;28;20127;-56
2021/07/24 08:50:58;;;;;;;6.72;4.82;;;33.70;63.10;;;;;;5088721;28;20906;-58
2021/07/24 08:53:26;;;;;;;5.93;4.63;;;33.60;63.00;;;;;;5096258;28;20115;-59
2021/07/24 08:56:03;;;;;;;10.27;4.75;;;33.60;62.50;;;;;;5095488;28;20048;-58
2021/07/24 08:58:35;;;;;;;5.28;4.75;;;33.60;63.20;;;;;;5095526;28;20501;-58
2021/07/24 09:01:03;;;;;;;5.68;4.90;;;33.70;63.10;;;;;;5095487;28;20051;-58
2021/07/24 09:03:33;;;;;;;6.38;4.57;;;33.70;63.00;;;;;;5095905;28;20051;-57
2021/07/24 09:06:01;;;;;;;7.68;4.30;;;33.80;63.60;;;;;;5083652;28;20067;-58
2021/07/24 09:08:29;;;;;;;6.47;5.43;;;33.80;63.00;;;;;;5095936;28;20055;-57
2021/07/24 09:10:58;;;;;;;6.60;4.47;;;33.80;63.10;;;;;;5095275;28;20059;-58
2021/07/24 09:13:25;;;;;;;9.50;5.35;;;33.90;61.90;;;;;;5095507;28;20078;-58
2021/07/24 09:15:54;;;;;;;7.00;4.38;;;33.80;63.00;;;;;;5095444;28;20454;-58
2021/07/24 09:18:24;;;;;;;6.75;4.30;;;33.80;62.80;;;;;;5095873;28;20139;-59
2021/07/24 09:20:52;;;;;;;4.90;4.10;;;33.80;62.50;;;;;;5094303;28;20036;-58
2021/07/24 09:23:28;;;;;;;8.45;4.10;;;33.80;63.20;;;;;;5094700;28;20189;-58
2021/07/24 09:25:56;;;;;;;6.32;4.53;;;33.90;63.40;;;;;;5088183;28;20036;-58
2021/07/24 09:28:24;;;;;;;5.95;4.75;;;33.90;62.80;;;;;;5077352;28;20048;-58
2021/07/24 09:30:52;;;;;;;7.63;4.88;;;33.90;62.70;;;;;;5094904;28;20050;-58
2021/07/24 09:33:21;;;;;;;6.05;4.65;;;33.90;61.90;;;;;;5095564;28;20040;-58
2021/07/24 09:35:59;;;;;;;8.07;4.15;;;33.80;60.90;;;;;;5095155;28;20093;-59
2021/07/24 09:38:37;;;;;;;6.07;4.03;;;33.80;61.20;;;;;;5095476;28;20062;-58
2021/07/24 09:41:11;;;;;;;5.13;3.80;;;33.90;60.90;;;;;;5095185;28;20051;-58
2021/07/24 09:43:42;;;;;;;5.53;4.20;;;33.90;60.80;;;;;;5094998;28;20127;-58
2021/07/24 09:46:11;;;;;;;5.22;4.57;;;33.80;60.50;;;;;;5095466;28;20533;-59
2021/07/24 09:48:50;;;;;;;6.50;4.45;;;33.90;61.50;;;;;;5093482;28;20517;-58
2021/07/24 09:51:41;;;;;;;4.88;4.03;;;34.00;61.30;;;;;;5094118;28;20040;-58
2021/07/24 09:54:27;;;;;;;5.82;4.15;;;33.90;60.90;;;;;;5094830;28;20196;-58
2021/07/24 09:56:55;;;;;;;6.90;4.45;;;34.00;61.10;;;;;;5094909;28;20040;-59
2021/07/24 09:59:32;;;;;;;5.18;4.07;;;34.10;61.10;;;;;;5094553;28;20032;-58
2021/07/24 10:02:02;;;;;;;7.40;4.10;;;34.20;60.70;;;;;;5086433;28;20044;-58
2021/07/24 10:04:37;;;;;;;6.22;4.30;;;34.30;59.90;;;;;;5094565;28;20040;-58
2021/07/24 10:07:15;;;;;;;5.30;4.47;;;34.10;59.80;;;;;;5088339;28;20036;-58
2021/07/24 10:09:45;;;;;;;6.72;4.18;;;34.10;59.20;;;;;;5094743;28;20036;-58
2021/07/24 10:12:15;;;;;;;5.40;3.95;;;34.00;59.00;;;;;;5094780;28;20048;-58
2021/07/24 10:14:43;;;;;;;5.47;3.85;;;33.80;58.70;;;;;;5093654;28;20040;-58
2021/07/24 10:17:13;;;;;;;6.55;4.00;;;33.70;58.50;;;;;;5094569;28;20155;-58
2021/07/24 10:19:43;;;;;;;4.82;3.75;;;33.50;58.30;;;;;;5094071;28;20123;-58
2021/07/24 10:22:11;;;;;;;6.10;4.68;;;33.60;58.30;;;;;;5094851;28;20055;-58
2021/07/24 10:24:39;;;;;;;5.93;3.88;;;33.70;57.80;;;;;;5093726;28;20082;-58
2021/07/24 10:27:06;;;;;;;7.22;5.00;;;33.80;57.40;;;;;;5094453;28;20079;-59
2021/07/24 10:29:41;;;;;;;4.65;3.92;;;33.80;57.10;;;;;;5093506;28;20506;-58
2021/07/24 10:32:11;;;;;;;6.20;4.22;;;33.80;57.00;;;;;;5085108;28;20044;-58
2021/07/24 10:34:52;;;;;;;6.47;3.88;;;33.90;57.40;;;;;;5093571;28;20032;-58
2021/07/24 10:37:44;;;;;;;4.82;4.03;;;33.90;57.80;;;;;;5087002;28;20101;-58
2021/07/24 10:40:22;;;;;;;5.85;4.60;;;34.00;57.40;;;;;;5094012;28;20044;-58
2021/07/24 10:42:51;;;;;;;5.63;4.68;;;34.20;57.40;;;;;;5094097;28;20044;-58
2021/07/24 10:45:35;;;;;;;8.05;4.53;;;34.20;57.70;;;;;;5086286;28;20477;-58
2021/07/24 10:48:19;;;;;;;5.50;4.38;;;34.20;57.90;;;;;;5072793;28;20040;-58
2021/07/24 10:50:50;;;;;;;19.40;4.50;;;34.00;57.60;;;;;;5056745;28;20494;-58
2021/07/24 10:53:17;;;;;;;5.63;3.80;;;34.00;57.80;;;;;;5094150;28;20036;-58
2021/07/24 10:55:47;;;;;;;5.43;4.38;;;34.00;57.90;;;;;;5093535;28;20127;-58
2021/07/24 10:58:23;;;;;;;5.82;3.90;;;34.00;57.70;;;;;;5092557;28;20048;-58
2021/07/24 11:00:57;;;;;;;4.95;3.90;;;34.00;57.00;;;;;;5081278;28;20040;-58
2021/07/24 11:03:32;;;;;;;5.97;4.22;;;34.10;56.80;;;;;;5093603;28;20044;-58
2021/07/24 11:06:01;;;;;;;5.65;4.13;;;33.90;57.60;;;;;;5093548;28;20389;-58
2021/07/24 11:09:07;;;;;;;6.18;4.00;;;33.90;57.30;;;;;;5092551;28;20048;-54
2021/07/24 11:11:42;;;;;;;5.25;4.35;;;33.90;56.60;;;;;;5090805;28;20377;-58
2021/07/24 11:14:30;;;;;;;;;;;33.80;57.60;;;;;;5093947;28;20043;-58
2021/07/24 11:17:04;;;;;;;5.03;3.85;;;33.80;57.00;;;;;;5066960;28;19927;-58
2021/07/24 11:19:33;;;;;;;5.72;3.97;;;33.80;57.20;;;;;;5093413;28;20097;-58
2021/07/24 11:22:14;;;;;;;4.85;3.90;;;33.80;57.40;;;;;;5075543;28;20044;-58
2021/07/24 11:24:44;;;;;;;4.15;3.40;;;33.80;57.80;;;;;;5088647;28;20078;-58
2021/07/24 11:27:12;;;;;;;4.72;3.90;;;33.60;56.90;;;;;;5093271;28;20157;-58
2021/07/24 11:29:40;;;;;;;6.15;3.72;;;33.60;57.00;;;;;;5088325;28;20044;-58
2021/07/24 11:32:08;;;;;;;5.63;4.10;;;33.60;56.90;;;;;;5093486;28;20123;-58
2021/07/24 11:34:36;;;;;;;5.22;3.70;;;33.60;56.80;;;;;;5092684;28;20071;-57
2021/07/24 11:37:04;;;;;;;6.30;3.70;;;33.60;56.50;;;;;;5093667;28;20044;-58
2021/07/24 11:39:32;;;;;;;5.07;4.03;;;33.70;56.80;;;;;;5093005;28;20060;-59
2021/07/24 11:42:00;;;;;;;4.90;3.22;;;33.60;55.90;;;;;;5084844;28;20044;-58
2021/07/24 11:44:32;;;;;;;6.30;3.85;;;33.50;55.80;;;;;;5090776;28;20089;-58
2021/07/24 11:47:02;;;;;;;4.82;3.78;;;33.60;56.60;;;;;;5079229;28;20048;-58
2021/07/24 11:49:31;;;;;;;4.85;4.00;;;33.50;56.00;;;;;;5096910;28;20047;-57
2021/07/24 11:51:59;;;;;;;5.13;3.67;;;33.40;55.10;;;;;;5088865;28;20040;-58
2021/07/24 11:54:31;;;;;;;4.65;3.85;;;33.40;54.20;;;;;;5096595;28;20123;-59
2021/07/24 11:57:03;;;;;;;7.13;3.92;;;33.50;54.50;;;;;;5078130;28;20097;-58
2021/07/24 11:59:39;;;;;;;4.60;3.83;;;33.50;56.90;;;;;;5096779;28;20123;-58
2021/07/24 12:02:19;;;;;;;6.63;4.22;;;33.50;54.90;;;;;;5089824;28;20131;-58
2021/07/24 12:04:50;;;;;;;5.85;4.28;;;33.50;57.00;;;;;;5092260;28;20044;-58
2021/07/24 12:07:19;;;;;;;6.22;4.60;;;33.40;58.80;;;;;;5097003;28;20127;-58
2021/07/24 12:09:47;;;;;;;7.95;4.43;;;33.40;59.00;;;;;;5096630;28;20097;-58
2021/07/24 12:12:15;;;;;;;5.80;4.22;;;33.30;58.90;;;;;;5096818;28;20067;-58
2021/07/24 12:14:55;;;;;;;4.60;3.85;;;33.30;59.30;;;;;;5095561;28;20042;-58
2021/07/24 12:17:26;;;;;;;6.78;4.88;;;33.40;59.10;;;;;;5090340;28;20040;-58
2021/07/24 12:19:53;;;;;;;4.43;3.78;;;33.40;59.00;;;;;;5096287;28;20123;-58
2021/07/24 12:22:26;;;;;;;6.55;4.00;;;33.30;58.60;;;;;;5081349;28;20041;-58
2021/07/24 12:25:11;;;;;;;4.60;4.10;;;33.20;58.80;;;;;;5087881;28;20196;-58
2021/07/24 12:27:49;;;;;;;5.13;4.13;;;33.00;59.00;;;;;;5097022;28;20044;-58
2021/07/24 12:30:26;;;;;;;6.78;4.55;;;33.00;59.50;;;;;;5089497;28;20040;-58
2021/07/24 12:32:54;;;;;;;5.80;4.35;;;32.90;58.70;;;;;;5096198;28;20482;-58
2021/07/24 12:35:24;;;;;;;4.80;3.92;;;32.90;58.60;;;;;;5096201;28;20036;-58
2021/07/24 12:38:04;;;;;;;7.07;4.20;;;32.90;59.60;;;;;;5096648;28;20044;-58
2021/07/24 12:40:32;;;;;;;6.47;4.28;;;32.80;60.00;;;;;;5095971;28;20508;-58
2021/07/24 12:43:10;;;;;;;6.25;3.92;;;32.80;59.90;;;;;;5096278;28;20056;-58
2021/07/24 12:45:38;;;;;;;5.88;4.10;;;32.90;59.20;;;;;;5096127;28;20044;-58
2021/07/24 12:48:22;;;;;;;6.05;3.95;;;32.90;59.30;;;;;;5096511;28;20068;-58
2021/07/24 12:51:14;;;;;;;4.43;3.75;;;32.90;58.30;;;;;;5095585;28;20048;-58
2021/07/24 12:53:44;;;;;;;5.80;4.20;;;32.90;58.30;;;;;;5095579;28;20040;-58
2021/07/24 12:56:12;;;;;;;6.28;4.18;;;32.90;58.60;;;;;;5093121;28;20063;-58
2021/07/24 12:58:40;;;;;;;4.35;3.45;;;32.80;58.10;;;;;;5095273;28;20135;-58
2021/07/24 13:01:09;;;;;;;5.93;4.63;;;32.80;58.60;;;;;;5095942;28;20448;-58
2021/07/24 13:03:37;;;;;;;5.97;4.03;;;32.70;58.90;;;;;;5094581;28;20052;-58